createdAt,value
2023-04-14T00:00:01.562Z,0.00
2023-04-14T00:10:01.254Z,0.00
2023-04-14T00:20:01.047Z,0.00
2023-04-14T00:30:02.366Z,0.00
2023-04-14T00:40:01.246Z,0.00
2023-04-14T00:50:01.302Z,0.00
2023-04-14T01:00:00.827Z,0.00
2023-04-14T01:10:00.854Z,0.00
2023-04-14T01:20:00.893Z,0.00
2023-04-14T01:30:01.334Z,0.00
2023-04-14T01:40:00.801Z,0.00
2023-04-14T01:50:00.913Z,0.00
2023-04-14T02:00:00.876Z,0.00
2023-04-14T02:10:01.020Z,0.00
2023-04-14T02:20:01.882Z,0.00
2023-04-14T02:30:01.516Z,0.00
2023-04-14T02:40:01.221Z,0.00
2023-04-14T02:50:01.378Z,0.00
2023-04-14T03:00:00.926Z,0.00
2023-04-14T03:10:01.008Z,0.00
2023-04-14T03:20:03.927Z,0.00
2023-04-14T03:30:01.586Z,0.00
2023-04-14T03:40:00.872Z,0.00
2023-04-14T03:50:01.082Z,0.34
2023-04-14T04:00:01.260Z,2.04
2023-04-14T04:10:01.013Z,7.24
2023-04-14T04:20:01.026Z,8.33
2023-04-14T04:30:01.307Z,36.67
2023-04-14T04:40:01.265Z,66.67
2023-04-14T04:50:00.793Z,121.67
2023-04-14T05:00:00.806Z,166.67
2023-04-14T05:10:01.338Z,432.08
2023-04-14T05:20:01.259Z,535.00
2023-04-14T05:30:01.780Z,335.00
2023-04-14T05:40:00.906Z,338.33
2023-04-14T05:50:00.980Z,383.33
2023-04-14T06:00:01.352Z,471.67
2023-04-14T06:10:00.893Z,1244.17
2023-04-14T06:20:00.834Z,703.33
2023-04-14T06:30:01.068Z,1657.50
2023-04-14T06:40:01.249Z,980.00
2023-04-14T06:50:01.159Z,2080.00
2023-04-14T07:00:02.370Z,2572.08
2023-04-14T07:10:00.918Z,2996.25
2023-04-14T07:20:00.747Z,3328.75
2023-04-14T07:30:01.069Z,3896.25
2023-04-14T07:40:01.060Z,1865.00
2023-04-14T07:50:01.579Z,3953.33
2023-04-14T08:00:01.332Z,1706.67
2023-04-14T08:10:01.027Z,2065.00
2023-04-14T08:20:04.344Z,4000.00
2023-04-14T08:30:01.363Z,4224.58
2023-04-14T08:40:00.867Z,2523.33
2023-04-14T08:50:00.816Z,5662.08
2023-04-14T09:00:01.381Z,2815.00
2023-04-14T09:10:01.470Z,4641.25
2023-04-14T09:20:34.215Z,3904.17
2023-04-14T09:30:00.276Z,2733.33
2023-04-14T09:40:00.864Z,2355.00
2023-04-14T09:50:00.740Z,2468.33
2023-04-14T10:00:01.097Z,2015.00
2023-04-14T10:10:00.891Z,4275.83
2023-04-14T10:20:00.900Z,1746.67
2023-04-14T10:30:00.862Z,2426.67
2023-04-14T10:40:01.228Z,4272.08
2023-04-14T10:50:00.900Z,4853.33
2023-04-14T11:00:00.261Z,2401.25
2023-04-14T11:10:01.066Z,1403.33
2023-04-14T11:20:01.120Z,1578.75
2023-04-14T11:30:01.499Z,2313.75
2023-04-14T11:40:01.521Z,761.67
2023-04-14T11:50:00.974Z,1138.33
2023-04-14T12:00:01.261Z,3258.33
2023-04-14T12:10:01.118Z,1616.67
2023-04-14T12:20:01.048Z,1396.67
2023-04-14T12:30:01.296Z,2407.92
2023-04-14T12:40:01.385Z,1090.00
2023-04-14T12:50:02.331Z,4448.75
2023-04-14T13:00:01.463Z,5350.42
2023-04-14T13:10:01.149Z,3081.67
2023-04-14T13:20:01.028Z,4648.33
2023-04-14T13:30:01.477Z,2280.00
2023-04-14T13:40:02.682Z,1486.67
2023-04-14T13:50:03.185Z,930.00
2023-04-14T14:00:01.233Z,1113.33
2023-04-14T14:10:02.972Z,1478.33
2023-04-14T14:20:01.179Z,1020.00
2023-04-14T14:30:02.119Z,1215.00
2023-04-14T14:40:04.043Z,2410.83
2023-04-14T14:50:03.567Z,1985.42
2023-04-14T15:00:02.287Z,853.33
2023-04-14T15:10:01.033Z,845.00
2023-04-14T15:20:01.207Z,785.00
2023-04-14T15:30:03.062Z,1346.67
2023-04-14T15:40:01.530Z,1450.42
2023-04-14T15:50:02.568Z,1404.58
2023-04-14T16:00:02.372Z,1178.75
2023-04-14T16:10:01.080Z,800.00
2023-04-14T16:20:01.710Z,286.67
2023-04-14T16:30:01.930Z,283.33
2023-04-14T16:40:01.139Z,368.33
2023-04-14T16:50:01.784Z,276.67
2023-04-14T17:00:02.174Z,377.08
2023-04-14T17:10:01.088Z,436.25
2023-04-14T17:20:01.588Z,96.67
2023-04-14T17:30:01.293Z,58.33
2023-04-14T17:40:01.917Z,40.00
2023-04-14T17:50:02.018Z,63.75
2023-04-14T18:00:02.564Z,10.00
2023-04-14T18:10:01.911Z,5.32
2023-04-14T18:20:01.043Z,1.58
2023-04-14T18:30:01.284Z,0.45
2023-04-14T18:40:00.805Z,0.11
2023-04-14T18:50:02.849Z,0.11
2023-04-14T19:00:02.331Z,0.11
2023-04-14T19:10:00.806Z,0.00
2023-04-14T19:20:01.076Z,0.00
2023-04-14T19:30:00.870Z,0.00
2023-04-14T19:40:01.524Z,0.00
2023-04-14T19:50:02.086Z,0.00
2023-04-14T20:00:01.515Z,0.00
2023-04-14T20:10:01.361Z,0.00
2023-04-14T20:20:03.146Z,0.00
2023-04-14T20:30:00.277Z,0.00
2023-04-14T20:40:01.327Z,0.00
2023-04-14T20:50:00.896Z,0.00
2023-04-14T21:00:01.849Z,0.00
2023-04-14T21:10:03.615Z,0.00
2023-04-14T21:20:02.771Z,0.00
2023-04-14T21:30:01.655Z,0.00
2023-04-14T21:40:00.830Z,0.00
2023-04-14T21:50:01.240Z,0.00
2023-04-14T22:00:00.811Z,0.00
2023-04-14T22:10:02.007Z,0.00
2023-04-14T22:20:00.936Z,0.00
2023-04-14T22:30:03.050Z,0.00
2023-04-14T22:40:01.070Z,0.00
2023-04-14T22:50:01.199Z,0.00
2023-04-14T23:00:01.495Z,0.00
2023-04-14T23:10:03.020Z,0.00
2023-04-14T23:20:03.533Z,0.00
2023-04-14T23:30:01.876Z,0.00
2023-04-14T23:40:01.457Z,0.00
2023-04-14T23:50:01.247Z,0.00
